createdAt,value
2022-09-12T00:01:13.063Z,11.19
2022-09-12T00:06:23.458Z,11.19
2022-09-12T00:11:31.256Z,11.19
2022-09-12T00:16:40.195Z,11.19
2022-09-12T00:21:48.505Z,11.19
2022-09-12T00:26:56.576Z,11.20
2022-09-12T00:32:05.094Z,11.19
2022-09-12T00:37:13.215Z,11.19
2022-09-12T00:42:21.304Z,11.19
2022-09-12T00:47:31.422Z,11.19
2022-09-12T00:52:43.040Z,11.18
2022-09-12T00:57:55.895Z,11.19
2022-09-12T01:03:06.888Z,11.20
2022-09-12T01:08:14.911Z,11.20
2022-09-12T01:13:22.909Z,11.21
2022-09-12T01:18:42.563Z,11.21
2022-09-12T01:24:32.767Z,11.22
2022-09-12T01:30:07.037Z,11.21
2022-09-12T01:35:23.278Z,11.22
2022-09-12T01:40:37.007Z,11.22
2022-09-12T01:45:55.605Z,11.22
2022-09-12T01:51:12.255Z,11.23
2022-09-12T01:56:23.812Z,11.23
2022-09-12T02:01:34.623Z,11.23
2022-09-12T02:06:47.653Z,11.23
2022-09-12T02:11:59.669Z,11.23
2022-09-12T02:17:12.470Z,11.22
2022-09-12T02:22:24.414Z,11.21
2022-09-12T02:27:39.822Z,11.21
2022-09-12T02:33:00.081Z,11.19
2022-09-12T02:38:12.109Z,11.18
2022-09-12T02:43:20.193Z,11.18
2022-09-12T02:48:33.381Z,11.17
2022-09-12T02:53:41.202Z,11.16
2022-09-12T02:58:50.316Z,11.14
2022-09-12T03:04:13.021Z,11.13
2022-09-12T03:09:29.950Z,11.12
2022-09-12T03:15:01.987Z,11.11
2022-09-12T03:20:18.530Z,11.12
2022-09-12T03:25:30.235Z,11.11
2022-09-12T03:30:43.705Z,11.11
2022-09-12T03:35:52.486Z,11.11
2022-09-12T03:41:00.468Z,11.10
2022-09-12T03:46:08.624Z,11.09
2022-09-12T03:51:16.508Z,11.08
2022-09-12T03:56:24.776Z,11.06
2022-09-12T04:01:33.682Z,11.06
2022-09-12T04:06:42.406Z,11.04
2022-09-12T04:11:50.541Z,11.02
2022-09-12T04:16:58.525Z,11.01
2022-09-12T04:22:06.751Z,11.00
2022-09-12T04:27:14.758Z,10.97
2022-09-12T04:32:22.758Z,10.97
2022-09-12T04:37:31.103Z,10.96
2022-09-12T04:42:39.256Z,10.95
2022-09-12T04:47:47.962Z,10.94
2022-09-12T04:52:57.147Z,10.94
2022-09-12T04:58:05.533Z,10.94
2022-09-12T05:03:13.703Z,10.93
2022-09-12T05:08:22.063Z,10.94
2022-09-12T05:13:30.253Z,10.94
2022-09-12T05:18:39.791Z,10.94
2022-09-12T05:23:49.395Z,10.95
2022-09-12T05:28:58.269Z,10.96
2022-09-12T05:34:07.510Z,10.96
2022-09-12T05:39:14.983Z,10.98
2022-09-12T05:44:23.127Z,10.99
2022-09-12T05:49:54.131Z,10.99
2022-09-12T05:55:02.394Z,11.03
2022-09-12T06:00:13.405Z,11.20
2022-09-12T06:05:21.493Z,11.21
2022-09-12T06:10:30.060Z,11.22
2022-09-12T06:15:38.176Z,11.22
2022-09-12T06:20:46.269Z,11.23
2022-09-12T06:25:54.431Z,11.23
2022-09-12T06:31:08.096Z,11.22
2022-09-12T06:36:18.425Z,11.22
2022-09-12T06:41:27.696Z,11.22
2022-09-12T06:46:35.946Z,11.23
2022-09-12T06:51:44.936Z,11.24
2022-09-12T06:56:52.957Z,11.27
2022-09-12T07:02:02.249Z,11.28
2022-09-12T07:07:10.631Z,11.29
2022-09-12T07:12:18.919Z,11.31
2022-09-12T07:17:27.395Z,11.33
2022-09-12T07:22:35.835Z,11.35
2022-09-12T07:27:46.207Z,11.37
2022-09-12T07:32:58.241Z,11.39
2022-09-12T07:38:06.505Z,11.41
2022-09-12T07:43:14.998Z,11.43
2022-09-12T07:48:23.364Z,11.47
2022-09-12T07:53:37.292Z,11.53
2022-09-12T07:58:46.270Z,11.58
2022-09-12T08:03:59.178Z,11.65
2022-09-12T08:09:08.157Z,11.71
2022-09-12T08:14:18.055Z,11.79
2022-09-12T08:19:26.100Z,11.85
2022-09-12T08:24:34.080Z,11.94
2022-09-12T08:29:42.017Z,12.01
2022-09-12T08:34:50.060Z,12.06
2022-09-12T08:39:58.348Z,12.11
2022-09-12T08:45:24.628Z,12.15
2022-09-12T08:50:32.901Z,12.22
2022-09-12T08:55:42.947Z,12.27
2022-09-12T09:00:59.834Z,12.34
2022-09-12T09:06:23.595Z,12.40
2022-09-12T09:11:55.871Z,12.45
2022-09-12T09:17:02.433Z,12.49
2022-09-12T09:22:16.366Z,12.52
2022-09-12T09:27:40.872Z,12.55
2022-09-12T09:32:53.227Z,12.58
2022-09-12T09:38:14.645Z,12.57
2022-09-12T09:43:27.907Z,12.64
2022-09-12T09:48:37.421Z,12.67
2022-09-12T09:53:52.000Z,12.72
2022-09-12T09:59:10.473Z,12.76
2022-09-12T10:04:24.210Z,12.80
2022-09-12T10:09:34.346Z,12.87
2022-09-12T10:14:43.943Z,12.95
2022-09-12T10:20:10.911Z,13.05
2022-09-12T10:25:27.550Z,13.13
2022-09-12T10:30:35.630Z,13.20
2022-09-12T10:35:51.592Z,13.26
2022-09-12T10:41:05.643Z,13.28
2022-09-12T10:46:33.419Z,13.31
2022-09-12T10:51:41.689Z,13.32
2022-09-12T10:57:05.229Z,13.33
2022-09-12T11:02:26.613Z,13.36
2022-09-12T11:07:55.449Z,13.38
2022-09-12T11:13:17.118Z,13.39
2022-09-12T11:18:52.517Z,13.40
2022-09-12T11:24:31.059Z,13.42
2022-09-12T11:29:51.554Z,13.47
2022-09-12T11:35:16.581Z,13.51
2022-09-12T11:40:34.134Z,13.56
2022-09-12T11:45:46.140Z,13.62
2022-09-12T11:50:53.044Z,13.68
2022-09-12T11:56:07.826Z,13.74
2022-09-12T12:01:22.820Z,13.81
2022-09-12T12:06:33.329Z,13.86
2022-09-12T12:11:45.514Z,13.90
2022-09-12T12:16:53.957Z,13.94
2022-09-12T12:22:10.876Z,13.99
2022-09-12T12:27:47.026Z,14.01
2022-09-12T12:33:00.904Z,14.03
2022-09-12T12:38:29.010Z,14.07
2022-09-12T12:43:37.020Z,14.10
2022-09-12T12:49:12.710Z,14.13
2022-09-12T12:54:56.455Z,14.16
2022-09-12T13:00:09.193Z,14.18
2022-09-12T13:05:24.889Z,14.21
2022-09-12T13:10:34.349Z,14.27
2022-09-12T13:15:55.909Z,14.33
2022-09-12T13:21:12.586Z,14.41
2022-09-12T13:26:26.933Z,14.50
2022-09-12T13:31:35.271Z,14.61
2022-09-12T13:36:58.731Z,14.72
2022-09-12T13:42:32.584Z,14.84
2022-09-12T13:47:43.292Z,14.95
2022-09-12T13:52:54.867Z,15.06
2022-09-12T13:58:05.238Z,15.10
2022-09-12T14:03:47.651Z,15.12
2022-09-12T14:08:55.417Z,15.15
2022-09-12T14:14:08.306Z,15.19
2022-09-12T14:19:17.757Z,15.27
2022-09-12T14:24:26.249Z,15.33
2022-09-12T14:29:35.049Z,15.36
2022-09-12T14:34:43.038Z,15.36
2022-09-12T14:39:51.283Z,15.32
2022-09-12T14:45:03.485Z,15.31
2022-09-12T14:50:21.350Z,15.28
2022-09-12T14:55:34.031Z,15.23
2022-09-12T15:00:58.133Z,15.20
2022-09-12T15:06:08.948Z,15.18
2022-09-12T15:11:20.193Z,15.17
2022-09-12T15:16:28.408Z,15.18
2022-09-12T15:21:36.755Z,15.16
2022-09-12T15:26:44.748Z,15.11
2022-09-12T15:31:54.158Z,15.08
2022-09-12T15:37:01.176Z,15.04
2022-09-12T15:42:10.395Z,14.98
2022-09-12T15:47:18.387Z,14.95
2022-09-12T15:52:26.142Z,14.92
2022-09-12T15:57:34.189Z,14.88
2022-09-12T16:02:42.472Z,14.86
2022-09-12T16:07:52.436Z,14.82
2022-09-12T16:13:01.131Z,14.79
2022-09-12T16:18:09.238Z,14.76
2022-09-12T16:23:17.554Z,14.72
2022-09-12T16:28:26.661Z,14.70
2022-09-12T16:33:35.731Z,14.67
2022-09-12T16:38:48.110Z,14.60
2022-09-12T16:43:56.919Z,14.54
2022-09-12T16:49:06.332Z,14.48
2022-09-12T16:54:14.860Z,14.41
2022-09-12T16:59:23.106Z,14.33
2022-09-12T17:04:31.118Z,14.19
2022-09-12T17:09:39.596Z,14.18
2022-09-12T17:14:48.095Z,14.09
2022-09-12T17:19:55.432Z,13.98
2022-09-12T17:25:03.652Z,13.85
2022-09-12T17:30:13.562Z,13.70
2022-09-12T17:35:22.125Z,13.53
2022-09-12T17:40:55.653Z,13.34
2022-09-12T17:46:01.080Z,13.12
2022-09-12T17:51:14.630Z,12.89
2022-09-12T17:56:22.587Z,12.66
2022-09-12T18:01:49.838Z,12.45
2022-09-12T18:07:00.678Z,12.21
2022-09-12T18:12:09.705Z,11.98
2022-09-12T18:17:17.153Z,11.77
2022-09-12T18:22:25.421Z,11.55
2022-09-12T18:27:33.354Z,11.34
2022-09-12T18:32:41.919Z,11.14
2022-09-12T18:37:50.209Z,10.95
2022-09-12T18:42:58.105Z,10.77
2022-09-12T18:48:06.864Z,10.58
2022-09-12T18:53:15.154Z,10.39
2022-09-12T18:58:23.292Z,10.21
2022-09-12T19:03:31.757Z,10.04
2022-09-12T19:08:39.970Z,9.88
2022-09-12T19:13:50.688Z,9.72
2022-09-12T19:18:59.922Z,9.57
2022-09-12T19:24:11.923Z,9.41
2022-09-12T19:29:20.015Z,9.26
2022-09-12T19:34:28.771Z,9.14
2022-09-12T19:39:36.740Z,9.01
2022-09-12T19:44:45.199Z,8.90
2022-09-12T19:49:54.026Z,8.78
2022-09-12T19:55:02.040Z,8.68
2022-09-12T20:00:10.960Z,8.57
2022-09-12T20:05:20.105Z,8.48
2022-09-12T20:10:28.445Z,8.39
2022-09-12T20:15:36.603Z,8.29
2022-09-12T20:20:44.537Z,8.20
2022-09-12T20:25:52.603Z,8.11
2022-09-12T20:31:04.244Z,8.01
2022-09-12T20:36:15.040Z,7.92
2022-09-12T20:41:23.652Z,7.85
2022-09-12T20:46:32.361Z,7.79
2022-09-12T20:51:40.964Z,7.73
2022-09-12T20:56:49.017Z,7.65
2022-09-12T21:01:57.397Z,7.57
2022-09-12T21:07:05.593Z,7.49
2022-09-12T21:12:13.678Z,7.41
2022-09-12T21:17:20.917Z,7.33
2022-09-12T21:22:28.917Z,7.25
2022-09-12T21:27:37.022Z,7.16
2022-09-12T21:32:45.306Z,6.99
2022-09-12T21:37:54.870Z,6.99
2022-09-12T21:43:02.860Z,6.93
2022-09-12T21:48:11.413Z,6.86
2022-09-12T21:53:19.397Z,6.82
2022-09-12T21:58:28.715Z,6.79
2022-09-12T22:03:36.891Z,6.76
2022-09-12T22:08:44.990Z,6.76
2022-09-12T22:13:53.190Z,6.73
2022-09-12T22:19:01.629Z,6.72
2022-09-12T22:24:29.713Z,6.68
2022-09-12T22:29:38.859Z,6.64
2022-09-12T22:34:46.978Z,6.61
2022-09-12T22:39:55.620Z,6.57
2022-09-12T22:45:03.913Z,6.52
2022-09-12T22:50:12.663Z,6.48
2022-09-12T22:55:21.307Z,6.43
2022-09-12T23:00:30.116Z,6.39
2022-09-12T23:05:39.898Z,6.33
2022-09-12T23:10:48.019Z,6.28
2022-09-12T23:16:03.177Z,6.23
2022-09-12T23:21:12.473Z,6.17
2022-09-12T23:26:22.198Z,6.11
2022-09-12T23:31:31.347Z,6.05
2022-09-12T23:36:39.566Z,5.98
2022-09-12T23:41:47.509Z,5.93
2022-09-12T23:46:55.601Z,5.87
2022-09-12T23:52:04.234Z,5.84
2022-09-12T23:57:12.308Z,5.78
